createdAt,value
2019-03-16T00:02:20.798Z,0.90
2019-03-16T00:04:48.435Z,1.10
2019-03-16T00:07:16.075Z,1.03
2019-03-16T00:09:43.707Z,1.30
2019-03-16T00:12:11.355Z,1.37
2019-03-16T00:14:38.998Z,1.60
2019-03-16T00:17:06.654Z,1.20
2019-03-16T00:19:34.375Z,1.27
2019-03-16T00:22:02.007Z,0.87
2019-03-16T00:24:29.651Z,0.77
2019-03-16T00:26:57.297Z,0.70
2019-03-16T00:29:24.949Z,0.97
2019-03-16T00:31:52.599Z,0.60
2019-03-16T00:34:20.247Z,0.80
2019-03-16T00:36:47.875Z,1.23
2019-03-16T00:39:15.519Z,0.87
2019-03-16T00:41:43.168Z,0.97
2019-03-16T00:44:10.806Z,1.07
2019-03-16T00:46:38.442Z,0.80
2019-03-16T00:49:06.087Z,1.47
2019-03-16T00:51:33.767Z,0.90
2019-03-16T00:54:01.428Z,1.03
2019-03-16T00:56:29.076Z,1.13
2019-03-16T00:58:56.719Z,0.80
2019-03-16T01:01:24.357Z,1.03
2019-03-16T01:03:52.010Z,0.97
2019-03-16T01:06:19.657Z,1.47
2019-03-16T01:08:47.286Z,0.87
2019-03-16T01:11:14.927Z,0.87
2019-03-16T01:13:42.567Z,0.80
2019-03-16T01:16:10.204Z,1.10
2019-03-16T01:18:37.857Z,1.40
2019-03-16T01:21:05.520Z,1.33
2019-03-16T01:23:33.191Z,1.30
2019-03-16T01:26:00.828Z,1.20
2019-03-16T01:28:28.473Z,0.93
2019-03-16T01:30:56.115Z,1.20
2019-03-16T01:33:23.763Z,1.00
2019-03-16T01:35:51.402Z,0.97
2019-03-16T01:38:19.090Z,1.37
2019-03-16T01:40:46.777Z,1.13
2019-03-16T01:43:14.415Z,1.03
2019-03-16T01:45:42.132Z,1.53
2019-03-16T01:48:09.771Z,1.40
2019-03-16T01:50:37.418Z,1.50
2019-03-16T01:53:05.068Z,1.50
2019-03-16T01:55:32.718Z,1.50
2019-03-16T01:58:00.354Z,1.03
2019-03-16T02:00:27.990Z,1.20
2019-03-16T02:02:56.046Z,1.33
2019-03-16T02:05:23.853Z,1.30
2019-03-16T02:07:51.503Z,1.23
2019-03-16T02:10:19.327Z,1.47
2019-03-16T02:12:46.979Z,1.67
2019-03-16T02:15:14.632Z,1.00
2019-03-16T02:17:42.274Z,1.27
2019-03-16T02:20:09.908Z,1.20
2019-03-16T02:22:37.550Z,1.40
2019-03-16T02:25:05.195Z,1.20
2019-03-16T02:27:32.831Z,1.03
2019-03-16T02:30:00.584Z,1.33
2019-03-16T02:32:28.301Z,1.20
2019-03-16T02:34:55.964Z,1.07
2019-03-16T02:40:01.910Z,1.40
2019-03-16T02:42:29.743Z,1.40
2019-03-16T02:44:57.452Z,1.30
2019-03-16T02:47:25.157Z,1.57
2019-03-16T02:49:52.782Z,1.30
2019-03-16T02:52:20.474Z,2.03
2019-03-16T02:54:48.112Z,1.13
2019-03-16T02:57:15.761Z,1.20
2019-03-16T02:59:43.425Z,1.17
2019-03-16T03:02:11.055Z,1.50
2019-03-16T03:04:38.691Z,0.93
2019-03-16T03:07:06.360Z,0.93
2019-03-16T03:09:34.069Z,1.50
2019-03-16T03:12:01.696Z,1.33
2019-03-16T03:14:29.345Z,1.93
2019-03-16T03:16:56.980Z,1.13
2019-03-16T03:19:24.631Z,1.00
2019-03-16T03:21:52.279Z,1.27
2019-03-16T03:24:19.944Z,1.63
2019-03-16T03:26:47.580Z,1.70
2019-03-16T03:29:15.232Z,1.50
2019-03-16T03:31:42.874Z,1.50
2019-03-16T03:34:10.517Z,1.67
2019-03-16T03:36:38.151Z,1.33
2019-03-16T03:39:05.803Z,1.20
2019-03-16T03:41:33.447Z,1.50
2019-03-16T03:44:01.092Z,1.70
2019-03-16T03:46:32.145Z,1.77
2019-03-16T03:48:58.076Z,1.67
2019-03-16T03:51:25.708Z,1.47
2019-03-16T03:53:53.348Z,1.23
2019-03-16T03:56:20.988Z,1.00
2019-03-16T03:58:48.632Z,1.30
2019-03-16T04:01:16.365Z,1.13
2019-03-16T04:03:43.995Z,0.80
2019-03-16T04:06:11.639Z,1.30
2019-03-16T04:08:39.281Z,1.00
2019-03-16T04:11:06.933Z,1.27
2019-03-16T04:13:34.572Z,1.33
2019-03-16T04:16:02.243Z,1.20
2019-03-16T04:18:29.932Z,1.10
2019-03-16T04:20:57.636Z,1.43
2019-03-16T04:23:25.268Z,1.30
2019-03-16T04:25:52.913Z,1.10
2019-03-16T04:28:20.572Z,1.20
2019-03-16T04:30:48.212Z,1.27
2019-03-16T04:33:15.862Z,1.23
2019-03-16T04:35:43.508Z,1.30
2019-03-16T04:38:11.156Z,1.33
2019-03-16T04:40:38.807Z,1.40
2019-03-16T04:43:06.446Z,1.10
2019-03-16T04:45:34.090Z,1.20
2019-03-16T04:48:01.719Z,1.10
2019-03-16T04:50:29.356Z,1.23
2019-03-16T04:52:56.996Z,1.77
2019-03-16T04:55:24.639Z,1.50
2019-03-16T04:57:52.286Z,1.10
2019-03-16T05:00:19.935Z,1.27
2019-03-16T05:02:47.582Z,1.40
2019-03-16T05:05:15.222Z,1.87
2019-03-16T05:07:42.862Z,1.03
2019-03-16T05:10:10.498Z,1.23
2019-03-16T05:12:38.130Z,1.30
2019-03-16T05:15:05.787Z,1.40
2019-03-16T05:17:33.430Z,1.73
2019-03-16T05:20:01.072Z,1.30
2019-03-16T05:22:28.719Z,1.37
2019-03-16T05:24:56.371Z,1.27
2019-03-16T05:27:24.006Z,1.67
2019-03-16T05:29:51.638Z,1.10
2019-03-16T05:32:19.285Z,1.50
2019-03-16T05:34:56.556Z,1.87
2019-03-16T05:37:16.259Z,1.43
2019-03-16T05:39:43.891Z,1.27
2019-03-16T05:42:11.532Z,1.53
2019-03-16T05:44:39.178Z,1.77
2019-03-16T05:47:06.820Z,1.40
2019-03-16T05:49:34.464Z,1.67
2019-03-16T05:52:02.090Z,1.50
2019-03-16T05:54:29.739Z,1.27
2019-03-16T05:56:57.389Z,1.40
2019-03-16T05:59:25.026Z,1.57
2019-03-16T06:01:52.691Z,1.30
2019-03-16T06:04:20.335Z,1.90
2019-03-16T06:06:47.977Z,1.43
2019-03-16T06:09:15.657Z,1.67
2019-03-16T06:11:43.360Z,1.20
2019-03-16T06:14:11.006Z,1.87
2019-03-16T06:16:38.670Z,1.70
2019-03-16T06:19:06.379Z,1.67
2019-03-16T06:21:34.014Z,1.60
2019-03-16T06:24:01.647Z,1.70
2019-03-16T06:26:29.303Z,1.37
2019-03-16T06:28:56.934Z,1.33
2019-03-16T06:31:24.583Z,1.40
2019-03-16T06:33:52.221Z,1.30
2019-03-16T06:36:19.877Z,1.60
2019-03-16T06:38:47.520Z,2.27
2019-03-16T06:41:15.163Z,2.10
2019-03-16T06:43:42.802Z,1.60
2019-03-16T06:46:10.442Z,1.43
2019-03-16T06:48:38.085Z,1.40
2019-03-16T06:51:05.719Z,1.60
2019-03-16T06:53:33.354Z,1.20
2019-03-16T06:56:01.017Z,1.20
2019-03-16T06:58:28.660Z,1.50
2019-03-16T07:00:56.314Z,1.77
2019-03-16T07:03:23.956Z,1.90
2019-03-16T07:05:51.599Z,1.30
2019-03-16T07:08:19.228Z,1.87
2019-03-16T07:10:46.885Z,1.63
2019-03-16T07:13:14.514Z,1.40
2019-03-16T07:15:42.155Z,1.17
2019-03-16T07:18:09.791Z,1.30
2019-03-16T07:20:37.431Z,1.60
2019-03-16T07:23:05.086Z,1.23
2019-03-16T07:25:32.722Z,1.47
2019-03-16T07:28:00.354Z,1.60
2019-03-16T07:30:28.631Z,1.90
2019-03-16T07:32:56.263Z,1.10
2019-03-16T07:35:23.939Z,1.33
2019-03-16T07:37:51.580Z,1.57
2019-03-16T07:40:19.245Z,1.27
2019-03-16T07:42:46.883Z,1.33
2019-03-16T07:45:14.520Z,1.13
2019-03-16T07:47:42.162Z,1.63
2019-03-16T07:50:09.786Z,1.23
2019-03-16T07:52:37.469Z,1.40
2019-03-16T07:55:05.093Z,1.10
2019-03-16T07:57:40.139Z,1.20
2019-03-16T08:00:02.200Z,1.57
2019-03-16T08:02:29.841Z,1.40
2019-03-16T08:04:57.476Z,1.60
2019-03-16T08:07:25.109Z,1.60
2019-03-16T08:09:52.760Z,1.50
2019-03-16T08:12:20.392Z,1.53
2019-03-16T08:14:48.031Z,1.80
2019-03-16T08:17:15.667Z,1.37
2019-03-16T08:19:43.303Z,1.17
2019-03-16T08:22:10.964Z,1.40
2019-03-16T08:24:38.735Z,1.43
2019-03-16T08:27:07.664Z,1.43
2019-03-16T08:29:35.522Z,1.30
2019-03-16T08:32:03.166Z,1.67
2019-03-16T08:34:30.869Z,1.30
2019-03-16T08:36:58.644Z,1.37
2019-03-16T08:39:26.574Z,1.27
2019-03-16T08:41:54.229Z,1.23
2019-03-16T08:44:21.873Z,1.13
2019-03-16T08:46:49.518Z,1.27
2019-03-16T08:49:17.160Z,1.10
2019-03-16T08:51:44.802Z,0.57
2019-03-16T08:54:12.766Z,1.07
2019-03-16T08:56:40.395Z,1.33
2019-03-16T08:59:08.027Z,1.40
2019-03-16T09:01:35.665Z,1.10
2019-03-16T09:04:03.303Z,1.67
2019-03-16T09:06:30.955Z,1.67
2019-03-16T09:08:58.687Z,1.30
2019-03-16T09:11:26.315Z,1.67
2019-03-16T09:13:54.179Z,1.37
2019-03-16T09:16:22.040Z,1.27
2019-03-16T09:18:49.672Z,1.57
2019-03-16T09:21:17.314Z,1.30
2019-03-16T09:23:45.276Z,1.53
2019-03-16T09:26:13.040Z,1.40
2019-03-16T09:28:40.716Z,1.17
2019-03-16T09:31:08.430Z,1.90
2019-03-16T09:33:36.095Z,1.30
2019-03-16T09:36:03.798Z,1.53
2019-03-16T09:38:31.435Z,1.50
2019-03-16T09:40:59.075Z,1.20
2019-03-16T09:43:26.725Z,1.63
2019-03-16T09:45:54.364Z,1.77
2019-03-16T09:48:22.703Z,2.07
2019-03-16T09:50:50.557Z,1.60
2019-03-16T09:53:18.208Z,1.33
2019-03-16T09:55:45.904Z,1.63
2019-03-16T09:58:13.542Z,1.80
2019-03-16T10:00:41.202Z,1.53
2019-03-16T10:03:08.859Z,1.70
2019-03-16T10:05:36.499Z,2.00
2019-03-16T10:08:04.144Z,1.60
2019-03-16T10:10:31.783Z,1.90
2019-03-16T10:12:59.840Z,1.97
2019-03-16T10:15:27.567Z,1.83
2019-03-16T10:17:55.215Z,1.70
2019-03-16T10:20:22.847Z,2.10
2019-03-16T10:22:50.539Z,1.73
2019-03-16T10:25:18.184Z,1.83
2019-03-16T10:27:45.830Z,1.57
2019-03-16T10:30:13.478Z,1.53
2019-03-16T10:32:41.102Z,1.83
2019-03-16T10:35:08.802Z,1.70
2019-03-16T10:37:36.484Z,1.60
2019-03-16T10:40:04.164Z,1.33
2019-03-16T10:42:31.802Z,1.57
2019-03-16T10:44:59.442Z,1.70
2019-03-16T10:47:27.106Z,1.33
2019-03-16T10:49:54.754Z,1.63
2019-03-16T10:52:22.433Z,1.80
2019-03-16T10:54:50.051Z,1.40
2019-03-16T10:57:17.706Z,1.73
2019-03-16T10:59:45.351Z,1.37
2019-03-16T11:02:12.993Z,1.60
2019-03-16T11:04:40.654Z,1.50
2019-03-16T11:07:08.305Z,1.77
2019-03-16T11:09:35.939Z,1.47
2019-03-16T11:12:03.589Z,1.30
2019-03-16T11:14:31.224Z,1.40
2019-03-16T11:16:58.867Z,1.47
2019-03-16T11:19:26.500Z,1.40
2019-03-16T11:21:54.168Z,1.40
2019-03-16T11:24:21.812Z,1.40
2019-03-16T11:26:49.469Z,1.10
2019-03-16T11:29:17.108Z,1.30
2019-03-16T11:31:44.749Z,1.10
2019-03-16T11:34:12.398Z,1.13
2019-03-16T11:36:40.042Z,1.50
2019-03-16T11:39:07.702Z,1.20
2019-03-16T11:41:35.363Z,1.23
2019-03-16T11:44:03.004Z,1.17
2019-03-16T11:46:30.671Z,1.30
2019-03-16T11:48:58.371Z,0.97
2019-03-16T11:51:26.016Z,1.20
2019-03-16T11:53:53.664Z,1.00
2019-03-16T11:56:21.423Z,1.40
2019-03-16T11:58:49.157Z,1.00
2019-03-16T12:01:16.790Z,1.03
2019-03-16T12:03:44.461Z,1.10
2019-03-16T12:06:12.101Z,1.13
2019-03-16T12:08:39.914Z,1.10
2019-03-16T12:11:07.561Z,0.93
2019-03-16T12:13:35.230Z,1.10
2019-03-16T12:16:02.970Z,1.20
2019-03-16T12:18:30.612Z,1.17
2019-03-16T12:20:58.243Z,1.20
2019-03-16T12:23:25.891Z,1.20
2019-03-16T12:25:53.680Z,1.50
2019-03-16T12:28:21.342Z,1.60
2019-03-16T12:30:49.071Z,1.30
2019-03-16T12:33:16.735Z,1.37
2019-03-16T12:35:44.372Z,1.40
2019-03-16T12:38:12.025Z,1.57
2019-03-16T12:40:39.667Z,1.57
2019-03-16T12:43:07.315Z,1.87
2019-03-16T12:45:34.951Z,1.40
2019-03-16T12:48:02.613Z,1.37
2019-03-16T12:50:30.287Z,1.67
2019-03-16T12:52:57.956Z,1.70
2019-03-16T12:55:25.615Z,1.67
2019-03-16T12:57:53.281Z,1.53
2019-03-16T13:00:20.958Z,1.87
2019-03-16T13:02:48.678Z,1.83
2019-03-16T13:05:16.327Z,1.70
2019-03-16T13:07:44.001Z,1.90
2019-03-16T13:10:11.649Z,1.50
2019-03-16T13:12:39.391Z,1.60
2019-03-16T13:15:07.097Z,1.93
2019-03-16T13:17:34.737Z,1.80
2019-03-16T13:20:02.375Z,2.57
2019-03-16T13:22:30.104Z,2.37
2019-03-16T13:24:57.763Z,2.53
2019-03-16T13:27:25.400Z,2.30
2019-03-16T13:29:58.850Z,1.40
2019-03-16T13:32:22.430Z,2.27
2019-03-16T13:34:50.080Z,2.27
2019-03-16T13:37:17.720Z,2.40
2019-03-16T13:39:45.364Z,2.83
2019-03-16T13:42:13.012Z,3.13
2019-03-16T13:44:40.691Z,2.77
2019-03-16T13:47:08.350Z,2.70
2019-03-16T13:49:36.017Z,2.53
2019-03-16T13:52:03.671Z,2.60
2019-03-16T13:54:31.709Z,3.13
2019-03-16T13:56:59.345Z,2.90
2019-03-16T13:59:27.059Z,2.87
2019-03-16T14:01:54.713Z,3.37
2019-03-16T14:04:22.409Z,3.47
2019-03-16T14:06:50.043Z,3.20
2019-03-16T14:09:17.693Z,3.23
2019-03-16T14:11:45.335Z,3.27
2019-03-16T14:14:12.986Z,2.63
2019-03-16T14:16:40.624Z,3.07
2019-03-16T14:19:08.287Z,3.23
2019-03-16T14:21:36.206Z,5.27
2019-03-16T14:24:03.855Z,2.77
2019-03-16T14:26:31.531Z,2.33
2019-03-16T14:28:59.269Z,2.37
2019-03-16T14:31:26.957Z,2.67
2019-03-16T14:33:54.606Z,2.73
2019-03-16T14:36:22.337Z,3.07
2019-03-16T14:38:50.176Z,2.53
2019-03-16T14:41:17.816Z,3.60
2019-03-16T14:43:45.450Z,3.53
2019-03-16T14:46:13.186Z,5.67
2019-03-16T14:48:40.820Z,6.33
2019-03-16T14:51:08.505Z,4.67
2019-03-16T14:53:36.151Z,3.33
2019-03-16T14:56:03.797Z,3.80
2019-03-16T14:58:31.435Z,4.00
2019-03-16T15:00:59.087Z,4.03
2019-03-16T15:03:26.738Z,4.13
2019-03-16T15:05:54.380Z,4.97
2019-03-16T15:08:22.022Z,5.00
2019-03-16T15:10:49.725Z,4.97
2019-03-16T15:13:17.391Z,5.03
2019-03-16T15:15:45.041Z,4.93
2019-03-16T15:18:12.684Z,5.43
2019-03-16T15:20:40.356Z,4.93
2019-03-16T15:23:07.996Z,5.10
2019-03-16T15:25:35.641Z,4.90
2019-03-16T15:28:03.275Z,4.37
2019-03-16T15:30:30.923Z,4.53
2019-03-16T15:33:00.363Z,5.10
2019-03-16T15:35:27.937Z,5.10
2019-03-16T15:37:55.622Z,4.30
2019-03-16T15:40:23.267Z,3.80
2019-03-16T15:42:50.911Z,4.17
2019-03-16T15:45:18.580Z,3.80
2019-03-16T15:47:46.306Z,4.27
2019-03-16T15:50:13.954Z,4.10
2019-03-16T15:52:41.595Z,2.20
2019-03-16T15:55:09.231Z,1.87
2019-03-16T15:57:36.872Z,1.80
2019-03-16T16:00:04.518Z,1.80
2019-03-16T16:02:32.171Z,1.63
2019-03-16T16:04:59.857Z,1.57
2019-03-16T16:07:27.503Z,1.40
2019-03-16T16:09:55.149Z,1.20
2019-03-16T16:12:22.793Z,1.20
2019-03-16T16:14:50.473Z,1.30
2019-03-16T16:17:18.180Z,1.40
2019-03-16T16:19:45.852Z,1.40
2019-03-16T16:22:13.535Z,1.30
2019-03-16T16:24:41.189Z,1.13
2019-03-16T16:27:08.841Z,1.20
2019-03-16T16:29:36.486Z,1.00
2019-03-16T16:32:04.132Z,1.20
2019-03-16T16:34:31.829Z,1.60
2019-03-16T16:36:59.487Z,1.50
2019-03-16T16:39:27.128Z,1.50
2019-03-16T16:41:54.778Z,0.90
2019-03-16T16:44:22.433Z,1.30
2019-03-16T16:46:50.076Z,1.30
2019-03-16T16:49:17.715Z,1.63
2019-03-16T16:51:45.380Z,1.23
2019-03-16T16:54:13.032Z,1.00
2019-03-16T16:56:40.676Z,1.40
2019-03-16T16:59:08.327Z,1.20
2019-03-16T17:01:35.963Z,1.10
2019-03-16T17:04:03.617Z,1.30
2019-03-16T17:06:31.279Z,1.10
2019-03-16T17:08:58.916Z,1.10
2019-03-16T17:11:26.581Z,1.00
2019-03-16T17:13:54.294Z,1.30
2019-03-16T17:16:21.942Z,1.17
2019-03-16T17:18:49.582Z,1.00
2019-03-16T17:21:17.230Z,1.30
2019-03-16T17:23:44.861Z,1.20
2019-03-16T17:26:12.518Z,1.13
2019-03-16T17:28:40.164Z,1.30
2019-03-16T17:31:07.809Z,1.17
2019-03-16T17:33:35.442Z,1.10
2019-03-16T17:36:03.093Z,1.00
2019-03-16T17:38:30.743Z,1.03
2019-03-16T17:40:58.391Z,1.00
2019-03-16T17:43:26.036Z,0.93
2019-03-16T17:45:53.679Z,1.10
2019-03-16T17:48:21.326Z,1.00
2019-03-16T17:50:48.985Z,1.00
2019-03-16T17:53:16.642Z,1.17
2019-03-16T17:55:44.295Z,1.10
2019-03-16T17:58:11.947Z,1.47
2019-03-16T18:00:39.583Z,1.37
2019-03-16T18:03:07.219Z,1.20
2019-03-16T18:05:34.874Z,1.13
2019-03-16T18:08:02.514Z,1.20
2019-03-16T18:10:30.151Z,0.97
2019-03-16T18:12:57.815Z,1.10
2019-03-16T18:15:25.500Z,1.60
2019-03-16T18:17:53.239Z,1.60
2019-03-16T18:20:20.884Z,1.70
2019-03-16T18:22:48.543Z,1.40
2019-03-16T18:25:16.178Z,1.40
2019-03-16T18:27:43.810Z,1.30
2019-03-16T18:30:11.451Z,1.47
2019-03-16T18:32:39.086Z,1.30
2019-03-16T18:35:06.722Z,1.20
2019-03-16T18:37:34.369Z,1.30
2019-03-16T18:40:02.011Z,1.30
2019-03-16T18:42:29.671Z,1.10
2019-03-16T18:44:57.299Z,1.37
2019-03-16T18:47:24.943Z,1.20
2019-03-16T18:49:52.590Z,1.00
2019-03-16T18:52:20.235Z,1.10
2019-03-16T18:54:47.884Z,1.40
2019-03-16T18:57:15.566Z,1.00
2019-03-16T18:59:43.293Z,1.17
2019-03-16T19:02:20.157Z,1.23
2019-03-16T19:04:40.387Z,1.43
2019-03-16T19:07:08.034Z,1.00
2019-03-16T19:09:35.667Z,1.10
2019-03-16T19:12:03.323Z,1.50
2019-03-16T19:14:30.957Z,1.23
2019-03-16T19:16:58.592Z,1.37
2019-03-16T19:19:26.230Z,1.33
2019-03-16T19:21:53.896Z,1.10
2019-03-16T19:24:21.615Z,1.00
2019-03-16T19:26:49.251Z,1.50
2019-03-16T19:29:16.893Z,1.13
2019-03-16T19:31:44.537Z,1.30
2019-03-16T19:34:12.179Z,1.37
2019-03-16T19:36:39.826Z,1.10
2019-03-16T19:39:07.472Z,1.20
2019-03-16T19:41:35.129Z,1.10
2019-03-16T19:44:02.764Z,1.23
2019-03-16T19:46:30.398Z,1.17
2019-03-16T19:48:58.041Z,1.23
2019-03-16T19:51:25.687Z,1.10
2019-03-16T19:53:53.337Z,1.00
2019-03-16T19:56:20.990Z,1.10
2019-03-16T19:58:59.986Z,1.20
2019-03-16T20:01:18.023Z,1.20
2019-03-16T20:03:45.675Z,1.17
2019-03-16T20:06:25.076Z,1.30
2019-03-16T20:08:42.675Z,1.20
2019-03-16T20:11:10.327Z,1.30
2019-03-16T20:13:37.970Z,1.00
2019-03-16T20:16:05.623Z,1.10
2019-03-16T20:18:33.290Z,0.97
2019-03-16T20:21:00.949Z,1.07
2019-03-16T20:23:28.656Z,1.20
2019-03-16T20:25:56.270Z,1.20
2019-03-16T20:28:23.910Z,1.23
2019-03-16T20:30:51.550Z,1.30
2019-03-16T20:33:19.194Z,1.03
2019-03-16T20:35:47.081Z,1.20
2019-03-16T20:38:14.798Z,1.43
2019-03-16T20:40:42.567Z,1.40
2019-03-16T20:43:10.201Z,0.97
2019-03-16T20:45:37.907Z,1.23
2019-03-16T20:48:05.674Z,1.30
2019-03-16T20:50:33.365Z,1.23
2019-03-16T20:53:01.009Z,1.17
2019-03-16T20:55:28.657Z,1.10
2019-03-16T20:57:56.331Z,1.30
2019-03-16T21:00:23.966Z,1.70
2019-03-16T21:02:51.627Z,1.40
2019-03-16T21:05:19.268Z,1.30
2019-03-16T21:07:47.133Z,1.20
2019-03-16T21:10:14.903Z,1.13
2019-03-16T21:12:42.539Z,1.20
2019-03-16T21:15:10.178Z,1.30
2019-03-16T21:17:37.858Z,1.20
2019-03-16T21:20:05.516Z,1.13
2019-03-16T21:22:36.337Z,1.30
2019-03-16T21:25:02.512Z,1.27
2019-03-16T21:27:30.257Z,1.13
2019-03-16T21:29:57.893Z,1.10
2019-03-16T21:32:25.531Z,1.40
2019-03-16T21:34:53.174Z,1.00
2019-03-16T21:37:20.831Z,1.10
2019-03-16T21:39:48.479Z,1.27
2019-03-16T21:42:16.125Z,1.10
2019-03-16T21:44:43.769Z,1.00
2019-03-16T21:47:11.412Z,1.17
2019-03-16T21:49:39.056Z,1.27
2019-03-16T21:52:06.711Z,1.33
2019-03-16T21:54:34.354Z,1.30
2019-03-16T21:57:02.070Z,1.30
2019-03-16T21:59:29.927Z,1.30
2019-03-16T22:01:57.574Z,1.20
2019-03-16T22:04:25.217Z,1.30
2019-03-16T22:06:52.867Z,1.30
2019-03-16T22:09:20.526Z,1.07
2019-03-16T22:11:48.176Z,1.27
2019-03-16T22:14:15.826Z,1.13
2019-03-16T22:16:43.463Z,0.90
2019-03-16T22:19:11.113Z,0.90
2019-03-16T22:21:38.742Z,1.10
2019-03-16T22:24:06.409Z,1.23
2019-03-16T22:26:34.134Z,1.10
2019-03-16T22:29:01.792Z,1.20
2019-03-16T22:31:29.435Z,1.30
2019-03-16T22:33:57.257Z,1.10
2019-03-16T22:36:24.958Z,1.03
2019-03-16T22:38:52.616Z,1.10
2019-03-16T22:41:20.262Z,1.33
2019-03-16T22:43:47.920Z,1.20
2019-03-16T22:46:15.587Z,1.10
2019-03-16T22:48:43.227Z,1.20
2019-03-16T22:51:10.874Z,1.20
2019-03-16T22:53:38.543Z,1.03
2019-03-16T22:56:06.174Z,1.00
2019-03-16T22:58:33.823Z,1.30
2019-03-16T23:01:01.495Z,1.13
2019-03-16T23:03:29.175Z,1.20
2019-03-16T23:05:56.869Z,1.10
2019-03-16T23:08:24.524Z,1.33
2019-03-16T23:10:52.165Z,1.23
2019-03-16T23:13:19.807Z,1.03
2019-03-16T23:15:47.429Z,1.10
2019-03-16T23:18:15.078Z,0.93
2019-03-16T23:20:42.724Z,1.00
2019-03-16T23:23:10.379Z,1.20
2019-03-16T23:25:38.027Z,1.30
2019-03-16T23:28:05.697Z,0.93
2019-03-16T23:30:33.411Z,1.13
2019-03-16T23:33:01.071Z,1.10
2019-03-16T23:35:28.706Z,1.40
2019-03-16T23:37:56.358Z,1.10
2019-03-16T23:40:24.004Z,0.90
2019-03-16T23:42:51.665Z,1.10
2019-03-16T23:45:19.299Z,1.00
2019-03-16T23:47:47.093Z,0.97
2019-03-16T23:50:14.730Z,1.00
2019-03-16T23:52:42.399Z,1.00
2019-03-16T23:55:10.033Z,1.20
2019-03-16T23:57:37.685Z,1.27
